sensor_id;sensor_type;location;lat;lon;timestamp;temperature;humidity
75786;DHT22;64402;44.708;37.644;2024-03-08T00:00:29;4.49;78.50
75786;DHT22;64402;44.708;37.644;2024-03-08T00:02:58;4.46;78.59
75786;DHT22;64402;44.708;37.644;2024-03-08T00:05:24;4.42;78.98
75786;DHT22;64402;44.708;37.644;2024-03-08T00:07:50;4.36;79.10
75786;DHT22;64402;44.708;37.644;2024-03-08T00:10:17;4.32;79.11
75786;DHT22;64402;44.708;37.644;2024-03-08T00:12:44;4.29;79.44
75786;DHT22;64402;44.708;37.644;2024-03-08T00:15:13;4.29;79.34
75786;DHT22;64402;44.708;37.644;2024-03-08T00:17:40;4.24;79.60
75786;DHT22;64402;44.708;37.644;2024-03-08T00:20:07;4.26;79.52
75786;DHT22;64402;44.708;37.644;2024-03-08T00:22:37;4.31;79.67
75786;DHT22;64402;44.708;37.644;2024-03-08T00:25:05;4.33;79.53
75786;DHT22;64402;44.708;37.644;2024-03-08T00:27:31;4.35;79.27
75786;DHT22;64402;44.708;37.644;2024-03-08T00:29:58;4.37;79.03
75786;DHT22;64402;44.708;37.644;2024-03-08T00:32:24;4.30;79.18
75786;DHT22;64402;44.708;37.644;2024-03-08T00:34:51;4.24;79.68
75786;DHT22;64402;44.708;37.644;2024-03-08T00:37:20;4.21;79.62
75786;DHT22;64402;44.708;37.644;2024-03-08T00:39:50;4.13;80.13
75786;DHT22;64402;44.708;37.644;2024-03-08T00:42:18;4.12;80.10
75786;DHT22;64402;44.708;37.644;2024-03-08T00:44:44;4.13;80.04
75786;DHT22;64402;44.708;37.644;2024-03-08T00:47:10;4.12;79.98
75786;DHT22;64402;44.708;37.644;2024-03-08T00:49:37;4.08;80.46
75786;DHT22;64402;44.708;37.644;2024-03-08T00:52:04;4.13;80.56
75786;DHT22;64402;44.708;37.644;2024-03-08T00:54:33;4.15;80.38
75786;DHT22;64402;44.708;37.644;2024-03-08T00:56:59;4.12;80.46
75786;DHT22;64402;44.708;37.644;2024-03-08T00:59:29;4.16;80.48
75786;DHT22;64402;44.708;37.644;2024-03-08T01:01:59;4.14;80.33
75786;DHT22;64402;44.708;37.644;2024-03-08T01:04:26;4.09;80.52
75786;DHT22;64402;44.708;37.644;2024-03-08T01:06:55;4.09;80.59
75786;DHT22;64402;44.708;37.644;2024-03-08T01:09:25;4.14;80.70
75786;DHT22;64402;44.708;37.644;2024-03-08T01:11:55;4.18;80.48
75786;DHT22;64402;44.708;37.644;2024-03-08T01:14:23;4.18;80.38
75786;DHT22;64402;44.708;37.644;2024-03-08T01:16:49;4.20;80.44
75786;DHT22;64402;44.708;37.644;2024-03-08T01:19:16;4.21;80.26
75786;DHT22;64402;44.708;37.644;2024-03-08T01:21:42;4.22;80.33
75786;DHT22;64402;44.708;37.644;2024-03-08T01:24:08;4.21;80.32
75786;DHT22;64402;44.708;37.644;2024-03-08T01:26:35;4.21;80.62
75786;DHT22;64402;44.708;37.644;2024-03-08T01:29:01;4.17;80.70
75786;DHT22;64402;44.708;37.644;2024-03-08T01:31:31;4.22;80.69
75786;DHT22;64402;44.708;37.644;2024-03-08T01:33:58;4.21;80.66
75786;DHT22;64402;44.708;37.644;2024-03-08T01:36:25;4.21;80.74
75786;DHT22;64402;44.708;37.644;2024-03-08T01:38:52;4.26;80.37
75786;DHT22;64402;44.708;37.644;2024-03-08T01:41:18;4.21;80.41
75786;DHT22;64402;44.708;37.644;2024-03-08T01:43:45;4.24;80.48
75786;DHT22;64402;44.708;37.644;2024-03-08T01:46:15;4.29;80.47
75786;DHT22;64402;44.708;37.644;2024-03-08T01:48:42;4.31;80.50
75786;DHT22;64402;44.708;37.644;2024-03-08T01:51:09;4.33;80.22
75786;DHT22;64402;44.708;37.644;2024-03-08T01:53:37;4.30;80.45
75786;DHT22;64402;44.708;37.644;2024-03-08T01:56:05;4.33;80.26
75786;DHT22;64402;44.708;37.644;2024-03-08T01:58:32;4.33;80.40
75786;DHT22;64402;44.708;37.644;2024-03-08T02:00:59;4.33;80.25
75786;DHT22;64402;44.708;37.644;2024-03-08T02:03:26;4.28;80.26
75786;DHT22;64402;44.708;37.644;2024-03-08T02:05:52;4.22;80.40
75786;DHT22;64402;44.708;37.644;2024-03-08T02:08:19;4.21;80.96
75786;DHT22;64402;44.708;37.644;2024-03-08T02:10:48;4.22;80.72
75786;DHT22;64402;44.708;37.644;2024-03-08T02:13:15;4.22;80.67
75786;DHT22;64402;44.708;37.644;2024-03-08T02:15:55;4.23;80.72
75786;DHT22;64402;44.708;37.644;2024-03-08T02:18:22;4.24;80.73
75786;DHT22;64402;44.708;37.644;2024-03-08T02:20:59;4.24;80.97
75786;DHT22;64402;44.708;37.644;2024-03-08T02:23:26;4.26;80.79
75786;DHT22;64402;44.708;37.644;2024-03-08T02:25:54;4.28;80.72
75786;DHT22;64402;44.708;37.644;2024-03-08T02:28:20;4.27;80.84
75786;DHT22;64402;44.708;37.644;2024-03-08T02:30:47;4.24;80.82
75786;DHT22;64402;44.708;37.644;2024-03-08T02:33:14;4.26;81.07
75786;DHT22;64402;44.708;37.644;2024-03-08T02:35:44;4.31;81.14
75786;DHT22;64402;44.708;37.644;2024-03-08T02:38:21;4.32;81.05
75786;DHT22;64402;44.708;37.644;2024-03-08T02:40:52;4.35;80.71
75786;DHT22;64402;44.708;37.644;2024-03-08T02:43:19;4.33;80.96
75786;DHT22;64402;44.708;37.644;2024-03-08T02:45:46;4.30;81.09
75786;DHT22;64402;44.708;37.644;2024-03-08T02:48:14;4.26;81.30
75786;DHT22;64402;44.708;37.644;2024-03-08T02:50:40;4.23;81.53
75786;DHT22;64402;44.708;37.644;2024-03-08T02:53:08;4.26;81.67
75786;DHT22;64402;44.708;37.644;2024-03-08T02:55:36;4.24;81.62
75786;DHT22;64402;44.708;37.644;2024-03-08T02:58:02;4.28;81.59
75786;DHT22;64402;44.708;37.644;2024-03-08T03:00:29;4.31;81.41
75786;DHT22;64402;44.708;37.644;2024-03-08T03:02:57;4.26;81.54
75786;DHT22;64402;44.708;37.644;2024-03-08T03:05:24;4.29;81.68
75786;DHT22;64402;44.708;37.644;2024-03-08T03:07:51;4.26;81.94
75786;DHT22;64402;44.708;37.644;2024-03-08T03:10:17;4.21;81.93
75786;DHT22;64402;44.708;37.644;2024-03-08T03:12:45;4.21;82.31
75786;DHT22;64402;44.708;37.644;2024-03-08T03:15:12;4.24;82.18
75786;DHT22;64402;44.708;37.644;2024-03-08T03:17:39;4.24;82.15
75786;DHT22;64402;44.708;37.644;2024-03-08T03:20:08;4.23;82.21
75786;DHT22;64402;44.708;37.644;2024-03-08T03:22:39;4.29;82.22
75786;DHT22;64402;44.708;37.644;2024-03-08T03:25:07;4.29;82.30
75786;DHT22;64402;44.708;37.644;2024-03-08T03:27:35;4.30;82.19
75786;DHT22;64402;44.708;37.644;2024-03-08T03:30:03;4.24;82.20
75786;DHT22;64402;44.708;37.644;2024-03-08T03:32:50;4.24;82.25
75786;DHT22;64402;44.708;37.644;2024-03-08T03:35:21;4.26;82.38
75786;DHT22;64402;44.708;37.644;2024-03-08T03:37:48;4.29;82.34
75786;DHT22;64402;44.708;37.644;2024-03-08T03:40:28;4.27;82.23
75786;DHT22;64402;44.708;37.644;2024-03-08T03:42:55;4.28;82.46
75786;DHT22;64402;44.708;37.644;2024-03-08T03:45:22;4.30;82.34
75786;DHT22;64402;44.708;37.644;2024-03-08T03:47:48;4.24;82.29
75786;DHT22;64402;44.708;37.644;2024-03-08T03:50:15;4.26;82.39
75786;DHT22;64402;44.708;37.644;2024-03-08T03:52:41;4.23;82.24
75786;DHT22;64402;44.708;37.644;2024-03-08T03:55:08;4.22;82.39
75786;DHT22;64402;44.708;37.644;2024-03-08T03:57:37;4.20;82.36
75786;DHT22;64402;44.708;37.644;2024-03-08T04:00:04;4.21;82.68
75786;DHT22;64402;44.708;37.644;2024-03-08T04:02:30;4.19;82.75
75786;DHT22;64402;44.708;37.644;2024-03-08T04:04:57;4.22;82.75
75786;DHT22;64402;44.708;37.644;2024-03-08T04:07:23;4.27;82.80
75786;DHT22;64402;44.708;37.644;2024-03-08T04:09:49;4.31;82.44
75786;DHT22;64402;44.708;37.644;2024-03-08T04:12:15;4.34;82.41
75786;DHT22;64402;44.708;37.644;2024-03-08T04:14:42;4.36;82.42
75786;DHT22;64402;44.708;37.644;2024-03-08T04:17:08;4.35;82.29
75786;DHT22;64402;44.708;37.644;2024-03-08T04:19:35;4.34;81.99
75786;DHT22;64402;44.708;37.644;2024-03-08T04:22:01;4.35;82.13
75786;DHT22;64402;44.708;37.644;2024-03-08T04:24:28;4.34;82.18
75786;DHT22;64402;44.708;37.644;2024-03-08T04:26:54;4.37;82.04
75786;DHT22;64402;44.708;37.644;2024-03-08T04:29:20;4.37;81.59
75786;DHT22;64402;44.708;37.644;2024-03-08T04:31:50;4.35;81.55
75786;DHT22;64402;44.708;37.644;2024-03-08T04:34:20;4.39;81.20
75786;DHT22;64402;44.708;37.644;2024-03-08T04:36:48;4.48;81.17
75786;DHT22;64402;44.708;37.644;2024-03-08T04:39:14;4.59;80.76
75786;DHT22;64402;44.708;37.644;2024-03-08T04:41:43;4.65;80.51
75786;DHT22;64402;44.708;37.644;2024-03-08T04:44:12;4.74;80.20
75786;DHT22;64402;44.708;37.644;2024-03-08T04:46:38;4.84;79.94
75786;DHT22;64402;44.708;37.644;2024-03-08T04:49:05;4.83;78.89
75786;DHT22;64402;44.708;37.644;2024-03-08T04:51:33;4.86;79.10
75786;DHT22;64402;44.708;37.644;2024-03-08T04:53:59;4.84;79.12
75786;DHT22;64402;44.708;37.644;2024-03-08T04:56:26;4.78;79.01
75786;DHT22;64402;44.708;37.644;2024-03-08T04:58:52;4.69;79.14
75786;DHT22;64402;44.708;37.644;2024-03-08T05:01:19;4.58;79.64
75786;DHT22;64402;44.708;37.644;2024-03-08T05:03:45;4.62;79.75
75786;DHT22;64402;44.708;37.644;2024-03-08T05:06:13;4.64;79.61
75786;DHT22;64402;44.708;37.644;2024-03-08T05:08:39;4.75;79.17
75786;DHT22;64402;44.708;37.644;2024-03-08T05:11:05;4.72;79.00
75786;DHT22;64402;44.708;37.644;2024-03-08T05:13:33;4.76;78.69
75786;DHT22;64402;44.708;37.644;2024-03-08T05:16:00;4.79;78.59
75786;DHT22;64402;44.708;37.644;2024-03-08T05:18:26;4.84;78.34
75786;DHT22;64402;44.708;37.644;2024-03-08T05:20:58;4.83;78.15
75786;DHT22;64402;44.708;37.644;2024-03-08T05:23:24;4.84;77.96
75786;DHT22;64402;44.708;37.644;2024-03-08T05:25:50;4.87;78.30
75786;DHT22;64402;44.708;37.644;2024-03-08T05:28:17;4.98;78.26
75786;DHT22;64402;44.708;37.644;2024-03-08T05:30:43;5.13;77.77
75786;DHT22;64402;44.708;37.644;2024-03-08T05:33:09;5.24;77.21
75786;DHT22;64402;44.708;37.644;2024-03-08T05:35:36;5.33;76.64
75786;DHT22;64402;44.708;37.644;2024-03-08T05:38:03;5.37;76.31
75786;DHT22;64402;44.708;37.644;2024-03-08T05:40:29;5.34;76.60
75786;DHT22;64402;44.708;37.644;2024-03-08T05:42:58;5.28;76.53
75786;DHT22;64402;44.708;37.644;2024-03-08T05:45:25;5.28;76.77
75786;DHT22;64402;44.708;37.644;2024-03-08T05:47:52;5.16;76.95
75786;DHT22;64402;44.708;37.644;2024-03-08T05:50:19;5.06;77.06
75786;DHT22;64402;44.708;37.644;2024-03-08T05:52:45;5.00;77.45
75786;DHT22;64402;44.708;37.644;2024-03-08T05:55:13;4.97;77.91
75786;DHT22;64402;44.708;37.644;2024-03-08T05:57:42;5.00;77.32
75786;DHT22;64402;44.708;37.644;2024-03-08T06:00:10;5.03;77.11
75786;DHT22;64402;44.708;37.644;2024-03-08T06:02:41;5.11;77.01
75786;DHT22;64402;44.708;37.644;2024-03-08T06:05:09;5.21;76.79
75786;DHT22;64402;44.708;37.644;2024-03-08T06:07:37;5.26;76.50
75786;DHT22;64402;44.708;37.644;2024-03-08T06:10:10;5.35;76.73
75786;DHT22;64402;44.708;37.644;2024-03-08T06:12:38;5.42;76.60
75786;DHT22;64402;44.708;37.644;2024-03-08T06:15:08;5.49;75.84
75786;DHT22;64402;44.708;37.644;2024-03-08T06:17:36;5.52;75.14
75786;DHT22;64402;44.708;37.644;2024-03-08T06:20:02;5.53;75.37
75786;DHT22;64402;44.708;37.644;2024-03-08T06:22:30;5.63;75.14
75786;DHT22;64402;44.708;37.644;2024-03-08T06:24:56;5.67;75.11
75786;DHT22;64402;44.708;37.644;2024-03-08T06:27:22;5.68;74.95
75786;DHT22;64402;44.708;37.644;2024-03-08T06:29:49;5.74;74.50
75786;DHT22;64402;44.708;37.644;2024-03-08T06:32:15;5.78;74.47
75786;DHT22;64402;44.708;37.644;2024-03-08T06:34:44;5.83;74.22
75786;DHT22;64402;44.708;37.644;2024-03-08T06:37:11;5.96;73.86
75786;DHT22;64402;44.708;37.644;2024-03-08T06:39:37;6.02;73.54
75786;DHT22;64402;44.708;37.644;2024-03-08T06:42:03;5.99;73.03
75786;DHT22;64402;44.708;37.644;2024-03-08T06:44:30;6.02;73.46
75786;DHT22;64402;44.708;37.644;2024-03-08T06:46:57;6.07;72.99
75786;DHT22;64402;44.708;37.644;2024-03-08T06:49:24;6.15;73.22
75786;DHT22;64402;44.708;37.644;2024-03-08T06:51:52;6.24;73.15
75786;DHT22;64402;44.708;37.644;2024-03-08T06:54:19;6.40;72.67
75786;DHT22;64402;44.708;37.644;2024-03-08T06:56:45;6.51;72.41
75786;DHT22;64402;44.708;37.644;2024-03-08T06:59:12;6.68;72.17
75786;DHT22;64402;44.708;37.644;2024-03-08T07:01:38;6.83;71.17
75786;DHT22;64402;44.708;37.644;2024-03-08T07:04:04;6.97;70.17
75786;DHT22;64402;44.708;37.644;2024-03-08T07:06:31;7.19;69.45
75786;DHT22;64402;44.708;37.644;2024-03-08T07:08:59;7.45;68.88
75786;DHT22;64402;44.708;37.644;2024-03-08T07:11:25;7.89;67.88
75786;DHT22;64402;44.708;37.644;2024-03-08T07:13:51;8.11;67.16
75786;DHT22;64402;44.708;37.644;2024-03-08T07:16:18;8.41;65.79
75786;DHT22;64402;44.708;37.644;2024-03-08T07:18:44;8.95;65.43
75786;DHT22;64402;44.708;37.644;2024-03-08T07:21:10;9.63;62.85
75786;DHT22;64402;44.708;37.644;2024-03-08T07:23:36;10.01;61.25
75786;DHT22;64402;44.708;37.644;2024-03-08T07:26:15;10.35;59.58
75786;DHT22;64402;44.708;37.644;2024-03-08T07:28:42;10.67;58.99
75786;DHT22;64402;44.708;37.644;2024-03-08T07:31:08;11.03;58.25
75786;DHT22;64402;44.708;37.644;2024-03-08T07:33:40;11.51;56.63
75786;DHT22;64402;44.708;37.644;2024-03-08T07:36:07;12.04;55.44
75786;DHT22;64402;44.708;37.644;2024-03-08T07:38:34;12.57;54.02
75786;DHT22;64402;44.708;37.644;2024-03-08T07:41:00;13.23;53.73
75786;DHT22;64402;44.708;37.644;2024-03-08T07:43:26;13.76;51.95
75786;DHT22;64402;44.708;37.644;2024-03-08T07:45:53;13.95;50.27
75786;DHT22;64402;44.708;37.644;2024-03-08T07:48:20;14.07;47.70
75786;DHT22;64402;44.708;37.644;2024-03-08T07:50:47;14.47;49.92
75786;DHT22;64402;44.708;37.644;2024-03-08T07:53:15;14.67;48.16
75786;DHT22;64402;44.708;37.644;2024-03-08T07:55:42;14.97;48.12
75786;DHT22;64402;44.708;37.644;2024-03-08T07:58:09;15.15;43.13
75786;DHT22;64402;44.708;37.644;2024-03-08T08:00:36;15.46;46.96
75786;DHT22;64402;44.708;37.644;2024-03-08T08:03:03;15.66;45.74
75786;DHT22;64402;44.708;37.644;2024-03-08T08:05:30;15.72;45.12
75786;DHT22;64402;44.708;37.644;2024-03-08T08:08:19;15.59;43.44
75786;DHT22;64402;44.708;37.644;2024-03-08T08:10:45;16.06;45.25
75786;DHT22;64402;44.708;37.644;2024-03-08T08:13:11;16.35;43.82
75786;DHT22;64402;44.708;37.644;2024-03-08T08:15:38;16.61;42.55
75786;DHT22;64402;44.708;37.644;2024-03-08T08:18:05;16.95;41.68
75786;DHT22;64402;44.708;37.644;2024-03-08T08:20:31;16.94;42.32
75786;DHT22;64402;44.708;37.644;2024-03-08T08:22:57;17.04;42.00
75786;DHT22;64402;44.708;37.644;2024-03-08T08:25:24;17.56;40.65
75786;DHT22;64402;44.708;37.644;2024-03-08T08:27:51;17.97;38.82
75786;DHT22;64402;44.708;37.644;2024-03-08T08:30:19;18.22;38.97
75786;DHT22;64402;44.708;37.644;2024-03-08T08:32:46;18.36;38.19
75786;DHT22;64402;44.708;37.644;2024-03-08T08:35:13;18.54;37.86
75786;DHT22;64402;44.708;37.644;2024-03-08T08:37:39;18.84;37.82
75786;DHT22;64402;44.708;37.644;2024-03-08T08:40:06;18.79;37.11
75786;DHT22;64402;44.708;37.644;2024-03-08T08:42:36;19.24;35.95
75786;DHT22;64402;44.708;37.644;2024-03-08T08:45:06;19.32;35.66
75786;DHT22;64402;44.708;37.644;2024-03-08T08:47:36;19.05;35.80
75786;DHT22;64402;44.708;37.644;2024-03-08T08:50:04;18.97;35.41
75786;DHT22;64402;44.708;37.644;2024-03-08T08:52:31;19.07;35.69
75786;DHT22;64402;44.708;37.644;2024-03-08T08:54:58;19.50;33.88
75786;DHT22;64402;44.708;37.644;2024-03-08T08:57:24;19.85;34.08
75786;DHT22;64402;44.708;37.644;2024-03-08T08:59:53;20.21;33.10
75786;DHT22;64402;44.708;37.644;2024-03-08T09:02:19;20.21;33.37
75786;DHT22;64402;44.708;37.644;2024-03-08T09:04:47;20.57;32.18
75786;DHT22;64402;44.708;37.644;2024-03-08T09:07:14;20.83;31.91
75786;DHT22;64402;44.708;37.644;2024-03-08T09:09:42;21.08;31.67
75786;DHT22;64402;44.708;37.644;2024-03-08T09:12:09;21.30;30.77
75786;DHT22;64402;44.708;37.644;2024-03-08T09:14:43;20.93;30.35
75786;DHT22;64402;44.708;37.644;2024-03-08T09:17:09;20.95;31.37
75786;DHT22;64402;44.708;37.644;2024-03-08T09:19:36;20.91;31.49
75786;DHT22;64402;44.708;37.644;2024-03-08T09:22:03;21.49;30.40
75786;DHT22;64402;44.708;37.644;2024-03-08T09:24:30;21.87;29.13
75786;DHT22;64402;44.708;37.644;2024-03-08T09:26:57;21.91;29.50
75786;DHT22;64402;44.708;37.644;2024-03-08T09:29:26;22.22;29.11
75786;DHT22;64402;44.708;37.644;2024-03-08T09:31:53;22.25;28.89
75786;DHT22;64402;44.708;37.644;2024-03-08T09:34:20;22.64;28.70
75786;DHT22;64402;44.708;37.644;2024-03-08T09:36:46;22.68;27.69
75786;DHT22;64402;44.708;37.644;2024-03-08T09:39:13;22.98;27.56
75786;DHT22;64402;44.708;37.644;2024-03-08T09:41:43;23.10;26.78
75786;DHT22;64402;44.708;37.644;2024-03-08T09:44:10;23.54;26.52
75786;DHT22;64402;44.708;37.644;2024-03-08T09:46:37;23.61;26.53
75786;DHT22;64402;44.708;37.644;2024-03-08T09:49:04;23.55;26.20
75786;DHT22;64402;44.708;37.644;2024-03-08T09:51:33;23.67;25.85
75786;DHT22;64402;44.708;37.644;2024-03-08T09:54:02;24.09;25.53
75786;DHT22;64402;44.708;37.644;2024-03-08T09:56:35;23.87;24.19
75786;DHT22;64402;44.708;37.644;2024-03-08T09:59:02;23.98;25.84
75786;DHT22;64402;44.708;37.644;2024-03-08T10:01:32;24.31;24.78
75786;DHT22;64402;44.708;37.644;2024-03-08T10:03:59;24.32;24.59
75786;DHT22;64402;44.708;37.644;2024-03-08T10:06:25;24.26;24.54
75786;DHT22;64402;44.708;37.644;2024-03-08T10:08:53;24.43;24.45
75786;DHT22;64402;44.708;37.644;2024-03-08T10:11:21;24.74;23.37
75786;DHT22;64402;44.708;37.644;2024-03-08T10:13:48;24.41;23.80
75786;DHT22;64402;44.708;37.644;2024-03-08T10:16:17;24.72;23.53
75786;DHT22;64402;44.708;37.644;2024-03-08T10:18:46;24.60;23.30
75786;DHT22;64402;44.708;37.644;2024-03-08T10:21:13;24.53;23.68
75786;DHT22;64402;44.708;37.644;2024-03-08T10:23:41;24.49;23.55
75786;DHT22;64402;44.708;37.644;2024-03-08T10:28:40;25.31;21.94
75786;DHT22;64402;44.708;37.644;2024-03-08T10:31:07;25.32;22.53
75786;DHT22;64402;44.708;37.644;2024-03-08T10:33:37;25.49;21.94
75786;DHT22;64402;44.708;37.644;2024-03-08T10:36:11;25.64;21.38
75786;DHT22;64402;44.708;37.644;2024-03-08T10:38:43;26.11;21.44
75786;DHT22;64402;44.708;37.644;2024-03-08T10:41:16;26.07;21.31
75786;DHT22;64402;44.708;37.644;2024-03-08T10:44:07;26.54;21.16
75786;DHT22;64402;44.708;37.644;2024-03-08T10:49:26;27.69;19.61
75786;DHT22;64402;44.708;37.644;2024-03-08T10:51:57;27.94;18.92
75786;DHT22;64402;44.708;37.644;2024-03-08T10:54:26;27.90;18.76
75786;DHT22;64402;44.708;37.644;2024-03-08T10:56:53;28.24;18.66
75786;DHT22;64402;44.708;37.644;2024-03-08T10:59:21;28.44;17.95
75786;DHT22;64402;44.708;37.644;2024-03-08T11:01:49;28.50;17.74
75786;DHT22;64402;44.708;37.644;2024-03-08T11:04:17;28.11;18.47
75786;DHT22;64402;44.708;37.644;2024-03-08T11:06:50;28.06;18.22
75786;DHT22;64402;44.708;37.644;2024-03-08T11:12:19;28.49;17.22
75786;DHT22;64402;44.708;37.644;2024-03-08T11:14:49;28.60;17.62
75786;DHT22;64402;44.708;37.644;2024-03-08T11:17:39;29.16;16.30
75786;DHT22;64402;44.708;37.644;2024-03-08T11:20:19;30.02;15.82
75786;DHT22;64402;44.708;37.644;2024-03-08T11:22:52;28.65;16.97
75786;DHT22;64402;44.708;37.644;2024-03-08T11:25:32;26.76;19.76
75786;DHT22;64402;44.708;37.644;2024-03-08T11:30:35;27.41;18.56
75786;DHT22;64402;44.708;37.644;2024-03-08T11:33:04;27.69;18.15
75786;DHT22;64402;44.708;37.644;2024-03-08T11:35:36;28.12;17.34
75786;DHT22;64402;44.708;37.644;2024-03-08T11:38:08;28.54;17.03
75786;DHT22;64402;44.708;37.644;2024-03-08T11:40:36;28.20;17.45
75786;DHT22;64402;44.708;37.644;2024-03-08T11:43:03;28.02;17.82
75786;DHT22;64402;44.708;37.644;2024-03-08T11:45:36;28.59;17.31
75786;DHT22;64402;44.708;37.644;2024-03-08T11:48:03;28.91;16.80
75786;DHT22;64402;44.708;37.644;2024-03-08T11:50:31;28.39;16.99
75786;DHT22;64402;44.708;37.644;2024-03-08T11:53:03;28.95;16.34
75786;DHT22;64402;44.708;37.644;2024-03-08T11:55:31;28.74;16.46
75786;DHT22;64402;44.708;37.644;2024-03-08T11:58:02;28.90;16.22
75786;DHT22;64402;44.708;37.644;2024-03-08T12:00:30;28.19;17.30
75786;DHT22;64402;44.708;37.644;2024-03-08T12:03:06;28.02;17.07
75786;DHT22;64402;44.708;37.644;2024-03-08T12:05:33;28.88;16.19
75786;DHT22;64402;44.708;37.644;2024-03-08T12:08:03;29.07;15.79
75786;DHT22;64402;44.708;37.644;2024-03-08T12:10:33;29.03;16.13
75786;DHT22;64402;44.708;37.644;2024-03-08T12:13:01;29.42;15.71
75786;DHT22;64402;44.708;37.644;2024-03-08T12:15:30;29.19;15.58
75786;DHT22;64402;44.708;37.644;2024-03-08T12:18:00;29.27;15.41
75786;DHT22;64402;44.708;37.644;2024-03-08T12:20:28;28.38;16.90
75786;DHT22;64402;44.708;37.644;2024-03-08T12:22:58;28.62;16.75
75786;DHT22;64402;44.708;37.644;2024-03-08T12:25:33;28.87;15.68
75786;DHT22;64402;44.708;37.644;2024-03-08T12:28:09;29.43;15.48
75786;DHT22;64402;44.708;37.644;2024-03-08T12:30:46;29.61;14.48
75786;DHT22;64402;44.708;37.644;2024-03-08T12:33:13;29.77;14.34
75786;DHT22;64402;44.708;37.644;2024-03-08T12:35:40;30.31;14.10
75786;DHT22;64402;44.708;37.644;2024-03-08T12:38:08;30.46;13.84
75786;DHT22;64402;44.708;37.644;2024-03-08T12:40:35;29.96;13.74
75786;DHT22;64402;44.708;37.644;2024-03-08T12:43:06;30.19;14.60
75786;DHT22;64402;44.708;37.644;2024-03-08T12:45:33;30.33;14.16
75786;DHT22;64402;44.708;37.644;2024-03-08T12:47:59;30.54;13.91
75786;DHT22;64402;44.708;37.644;2024-03-08T12:50:26;30.50;13.55
75786;DHT22;64402;44.708;37.644;2024-03-08T12:52:53;30.62;13.56
75786;DHT22;64402;44.708;37.644;2024-03-08T12:55:19;30.11;13.93
75786;DHT22;64402;44.708;37.644;2024-03-08T12:57:46;29.43;14.53
75786;DHT22;64402;44.708;37.644;2024-03-08T13:00:15;29.74;14.60
75786;DHT22;64402;44.708;37.644;2024-03-08T13:02:50;30.51;14.02
75786;DHT22;64402;44.708;37.644;2024-03-08T13:05:18;30.94;12.94
75786;DHT22;64402;44.708;37.644;2024-03-08T13:07:46;30.92;12.80
75786;DHT22;64402;44.708;37.644;2024-03-08T13:10:14;30.41;13.23
75786;DHT22;64402;44.708;37.644;2024-03-08T13:12:44;29.32;14.48
75786;DHT22;64402;44.708;37.644;2024-03-08T13:15:11;29.02;15.26
75786;DHT22;64402;44.708;37.644;2024-03-08T13:17:42;28.89;14.86
75786;DHT22;64402;44.708;37.644;2024-03-08T13:20:11;28.54;15.50
75786;DHT22;64402;44.708;37.644;2024-03-08T13:22:43;28.73;15.01
75786;DHT22;64402;44.708;37.644;2024-03-08T13:25:10;28.33;15.75
75786;DHT22;64402;44.708;37.644;2024-03-08T13:27:43;28.25;15.51
75786;DHT22;64402;44.708;37.644;2024-03-08T13:30:10;28.15;15.99
75786;DHT22;64402;44.708;37.644;2024-03-08T13:32:45;28.21;16.02
75786;DHT22;64402;44.708;37.644;2024-03-08T13:35:12;27.60;16.35
75786;DHT22;64402;44.708;37.644;2024-03-08T13:37:42;27.54;16.43
75786;DHT22;64402;44.708;37.644;2024-03-08T13:40:10;27.74;16.29
75786;DHT22;64402;44.708;37.644;2024-03-08T13:42:38;27.27;16.79
75786;DHT22;64402;44.708;37.644;2024-03-08T13:45:07;27.25;16.53
75786;DHT22;64402;44.708;37.644;2024-03-08T13:47:35;27.35;16.68
75786;DHT22;64402;44.708;37.644;2024-03-08T13:50:03;26.41;17.77
75786;DHT22;64402;44.708;37.644;2024-03-08T13:52:33;26.43;17.76
75786;DHT22;64402;44.708;37.644;2024-03-08T13:55:04;26.46;17.84
75786;DHT22;64402;44.708;37.644;2024-03-08T13:57:32;26.15;17.86
75786;DHT22;64402;44.708;37.644;2024-03-08T13:59:59;25.62;18.88
75786;DHT22;64402;44.708;37.644;2024-03-08T14:02:26;25.56;18.73
75786;DHT22;64402;44.708;37.644;2024-03-08T14:04:55;25.13;19.44
75786;DHT22;64402;44.708;37.644;2024-03-08T14:07:22;24.65;20.02
75786;DHT22;64402;44.708;37.644;2024-03-08T14:09:52;24.31;20.95
75786;DHT22;64402;44.708;37.644;2024-03-08T14:12:19;24.21;21.28
75786;DHT22;64402;44.708;37.644;2024-03-08T14:14:46;24.46;21.15
75786;DHT22;64402;44.708;37.644;2024-03-08T14:17:12;24.42;21.33
75786;DHT22;64402;44.708;37.644;2024-03-08T14:19:43;24.04;21.76
75786;DHT22;64402;44.708;37.644;2024-03-08T14:22:10;23.86;21.61
75786;DHT22;64402;44.708;37.644;2024-03-08T14:24:41;23.41;22.55
75786;DHT22;64402;44.708;37.644;2024-03-08T14:27:09;23.28;22.64
75786;DHT22;64402;44.708;37.644;2024-03-08T14:29:36;22.80;23.77
75786;DHT22;64402;44.708;37.644;2024-03-08T14:32:02;22.39;24.27
75786;DHT22;64402;44.708;37.644;2024-03-08T14:34:32;21.84;25.39
75786;DHT22;64402;44.708;37.644;2024-03-08T14:37:00;21.42;25.75
75786;DHT22;64402;44.708;37.644;2024-03-08T14:39:27;21.25;26.26
75786;DHT22;64402;44.708;37.644;2024-03-08T14:41:56;20.74;27.05
75786;DHT22;64402;44.708;37.644;2024-03-08T14:44:24;20.29;28.06
75786;DHT22;64402;44.708;37.644;2024-03-08T14:46:58;19.08;30.45
75786;DHT22;64402;44.708;37.644;2024-03-08T14:49:25;18.49;31.61
75786;DHT22;64402;44.708;37.644;2024-03-08T14:51:55;18.46;31.96
75786;DHT22;64402;44.708;37.644;2024-03-08T14:54:24;17.45;33.83
75786;DHT22;64402;44.708;37.644;2024-03-08T14:56:52;16.79;35.10
75786;DHT22;64402;44.708;37.644;2024-03-08T14:59:18;16.29;36.43
75786;DHT22;64402;44.708;37.644;2024-03-08T15:01:46;15.44;38.34
75786;DHT22;64402;44.708;37.644;2024-03-08T15:04:13;14.82;39.90
75786;DHT22;64402;44.708;37.644;2024-03-08T15:06:40;14.09;41.94
75786;DHT22;64402;44.708;37.644;2024-03-08T15:09:09;13.52;43.18
75786;DHT22;64402;44.708;37.644;2024-03-08T15:11:46;13.14;44.63
75786;DHT22;64402;44.708;37.644;2024-03-08T15:14:16;12.75;45.25
75786;DHT22;64402;44.708;37.644;2024-03-08T15:16:43;12.21;46.98
75786;DHT22;64402;44.708;37.644;2024-03-08T15:19:09;11.99;47.76
75786;DHT22;64402;44.708;37.644;2024-03-08T15:21:38;11.76;48.43
75786;DHT22;64402;44.708;37.644;2024-03-08T15:24:05;11.36;49.28
75786;DHT22;64402;44.708;37.644;2024-03-08T15:26:37;11.01;50.30
75786;DHT22;64402;44.708;37.644;2024-03-08T15:29:05;10.81;51.35
75786;DHT22;64402;44.708;37.644;2024-03-08T15:31:31;10.49;51.62
75786;DHT22;64402;44.708;37.644;2024-03-08T15:33:58;10.28;52.69
75786;DHT22;64402;44.708;37.644;2024-03-08T15:36:27;10.16;52.93
75786;DHT22;64402;44.708;37.644;2024-03-08T15:39:00;9.92;53.79